createdAt,value
2023-04-17T00:02:41.365Z,101782.28
2023-04-17T00:05:28.456Z,101787.69
2023-04-17T00:08:15.031Z,101781.66
2023-04-17T00:11:07.693Z,101781.72
2023-04-17T00:13:55.417Z,101782.78
2023-04-17T00:16:42.185Z,101784.56
2023-04-17T00:19:30.520Z,101792.38
2023-04-17T00:22:17.518Z,101791.50
2023-04-17T00:25:04.521Z,101789.69
2023-04-17T00:27:51.485Z,101787.13
2023-04-17T00:30:38.347Z,101788.09
2023-04-17T00:33:25.155Z,101781.75
2023-04-17T00:36:13.924Z,101788.66
2023-04-17T00:39:00.713Z,101794.06
2023-04-17T00:41:47.756Z,101792.06
2023-04-17T00:44:34.598Z,101793.19
2023-04-17T00:47:23.468Z,101788.88
2023-04-17T00:50:11.388Z,101794.03
2023-04-17T00:53:00.740Z,101793.28
2023-04-17T00:55:49.337Z,101790.75
2023-04-17T00:58:38.289Z,101788.91
2023-04-17T01:01:25.632Z,101787.13
2023-04-17T01:04:12.758Z,101794.94
2023-04-17T01:07:00.505Z,101803.03
2023-04-17T01:09:48.736Z,101798.69
2023-04-17T01:12:36.031Z,101793.50
2023-04-17T01:15:22.538Z,101793.44
2023-04-17T01:18:09.321Z,101790.06
2023-04-17T01:20:56.131Z,101794.47
2023-04-17T01:23:46.450Z,101796.25
2023-04-17T01:26:35.117Z,101798.03
2023-04-17T01:29:22.643Z,101795.56
2023-04-17T01:32:10.300Z,101794.06
2023-04-17T01:34:56.956Z,101788.72
2023-04-17T01:37:44.367Z,101797.53
2023-04-17T01:40:31.211Z,101794.00
2023-04-17T01:43:19.488Z,101796.69
2023-04-17T01:46:06.710Z,101801.16
2023-04-17T01:48:53.620Z,101796.00
2023-04-17T01:51:40.082Z,101793.41
2023-04-17T01:54:27.105Z,101803.13
2023-04-17T01:57:13.814Z,101801.34
2023-04-17T02:00:01.926Z,101802.34
2023-04-17T02:02:58.820Z,101797.78
2023-04-17T02:05:47.219Z,101797.91
2023-04-17T02:08:34.342Z,101795.31
2023-04-17T02:11:23.127Z,101808.69
2023-04-17T02:14:10.967Z,101807.78
2023-04-17T02:16:59.072Z,101813.97
2023-04-17T02:19:45.817Z,101824.50
2023-04-17T02:22:32.581Z,101814.84
2023-04-17T02:25:19.246Z,101817.66
2023-04-17T02:28:06.505Z,101821.03
2023-04-17T02:30:54.875Z,101817.59
2023-04-17T02:33:43.056Z,101818.44
2023-04-17T02:36:30.806Z,101817.47
2023-04-17T02:39:17.370Z,101818.41
2023-04-17T02:42:04.966Z,101823.72
2023-04-17T02:44:51.627Z,101821.13
2023-04-17T02:47:40.555Z,101824.59
2023-04-17T02:50:28.964Z,101816.72
2023-04-17T02:53:25.453Z,101822.88
2023-04-17T02:56:12.656Z,101816.75
2023-04-17T02:58:59.581Z,101823.00
2023-04-17T03:01:46.733Z,101825.63
2023-04-17T03:04:35.782Z,101822.91
2023-04-17T03:07:23.897Z,101813.28
2023-04-17T03:10:10.959Z,101822.91
2023-04-17T03:12:57.802Z,101827.25
2023-04-17T03:15:44.433Z,101830.81
2023-04-17T03:18:31.366Z,101827.25
2023-04-17T03:21:17.971Z,101830.81
2023-04-17T03:24:06.892Z,101833.50
2023-04-17T03:26:54.074Z,101840.56
2023-04-17T03:29:42.120Z,101809.75
2023-04-17T03:32:28.896Z,101835.28
2023-04-17T03:35:15.742Z,101844.03
2023-04-17T03:38:02.865Z,101843.28
2023-04-17T03:40:51.314Z,101847.72
2023-04-17T03:43:38.962Z,101853.84
2023-04-17T03:46:28.415Z,101854.84
2023-04-17T03:49:15.064Z,101857.53
2023-04-17T03:52:03.819Z,101858.41
2023-04-17T03:54:50.945Z,101854.84
2023-04-17T03:57:39.230Z,101861.16
2023-04-17T04:00:26.184Z,101866.44
2023-04-17T04:03:18.688Z,101859.47
2023-04-17T04:06:07.369Z,101870.94
2023-04-17T04:08:54.666Z,101870.03
2023-04-17T04:11:42.296Z,101884.09
2023-04-17T04:14:30.301Z,101881.44
2023-04-17T04:17:17.107Z,101887.56
2023-04-17T04:20:05.119Z,101882.25
2023-04-17T04:22:51.598Z,101893.59
2023-04-17T04:25:41.810Z,101893.50
2023-04-17T04:28:42.765Z,101901.44
2023-04-17T04:31:39.005Z,101902.28
2023-04-17T04:34:30.113Z,101906.56
2023-04-17T04:37:16.444Z,101897.88
2023-04-17T04:40:10.723Z,101898.53
2023-04-17T04:43:00.852Z,101895.88
2023-04-17T04:45:54.989Z,101902.03
2023-04-17T04:48:44.959Z,101896.00
2023-04-17T04:51:33.893Z,101898.84
2023-04-17T04:54:23.754Z,101902.34
2023-04-17T04:57:15.380Z,101907.63
2023-04-17T05:00:06.585Z,101906.63
2023-04-17T05:02:59.450Z,101908.53
2023-04-17T05:05:48.429Z,101908.41
2023-04-17T05:08:35.252Z,101911.13
2023-04-17T05:11:29.085Z,101915.53
2023-04-17T05:14:17.303Z,101917.22
2023-04-17T05:17:04.268Z,101913.97
2023-04-17T05:19:51.013Z,101924.34
2023-04-17T05:22:41.076Z,101930.47
2023-04-17T05:25:30.848Z,101927.84
2023-04-17T05:28:19.062Z,101922.66
2023-04-17T05:31:06.321Z,101930.47
2023-04-17T05:33:58.463Z,101936.47
2023-04-17T05:36:45.206Z,101936.53
2023-04-17T05:39:34.390Z,101909.25
2023-04-17T05:42:21.733Z,101936.31
2023-04-17T05:45:10.162Z,101942.53
2023-04-17T05:47:56.900Z,101930.09
2023-04-17T05:50:43.802Z,101949.47
2023-04-17T05:53:31.885Z,101941.75
2023-04-17T05:56:20.448Z,101939.06
2023-04-17T05:59:07.098Z,101956.53
2023-04-17T06:01:54.495Z,101939.13
2023-04-17T06:04:42.676Z,101949.56
2023-04-17T06:07:29.593Z,101951.44
2023-04-17T06:10:16.339Z,101957.47
2023-04-17T06:13:04.524Z,101953.75
2023-04-17T06:15:51.522Z,101961.75
2023-04-17T06:18:38.484Z,101963.38
2023-04-17T06:21:25.346Z,101966.75
2023-04-17T06:24:12.292Z,101970.34
2023-04-17T06:27:04.974Z,101968.69
2023-04-17T06:29:53.344Z,101968.63
2023-04-17T06:32:42.954Z,101970.63
2023-04-17T06:35:29.934Z,101978.41
2023-04-17T06:38:29.388Z,101970.28
2023-04-17T06:41:16.434Z,101975.56
2023-04-17T06:44:02.986Z,101978.19
2023-04-17T06:47:05.971Z,101980.00
2023-04-17T06:49:52.479Z,101987.94
2023-04-17T06:52:39.229Z,101985.09
2023-04-17T06:55:26.104Z,101984.97
2023-04-17T06:58:12.951Z,101992.53
2023-04-17T07:00:59.751Z,101993.88
2023-04-17T07:03:48.256Z,101959.50
2023-04-17T07:06:35.354Z,101978.63
2023-04-17T07:09:21.888Z,102000.78
2023-04-17T07:12:08.837Z,102006.47
2023-04-17T07:14:55.544Z,102003.44
2023-04-17T07:17:42.326Z,102000.31
2023-04-17T07:20:30.757Z,101990.16
2023-04-17T07:23:17.444Z,101998.75
2023-04-17T07:26:04.127Z,101992.09
2023-04-17T07:28:50.976Z,102003.22
2023-04-17T07:31:37.833Z,102008.50
2023-04-17T07:34:25.487Z,101998.19
2023-04-17T07:37:15.088Z,102003.25
2023-04-17T07:40:01.918Z,102013.72
2023-04-17T07:42:48.641Z,102012.81
2023-04-17T07:45:37.651Z,102008.09
2023-04-17T07:48:27.222Z,101990.78
2023-04-17T07:51:13.830Z,102026.09
2023-04-17T07:54:02.106Z,102026.75
2023-04-17T07:56:49.489Z,102023.75
2023-04-17T07:59:36.998Z,102026.50
2023-04-17T08:02:23.913Z,102034.06
2023-04-17T08:05:11.690Z,102031.19
2023-04-17T08:08:00.304Z,102029.22
2023-04-17T08:10:48.120Z,102037.28
2023-04-17T08:13:34.670Z,102031.47
2023-04-17T08:16:21.362Z,102039.63
2023-04-17T08:19:08.210Z,102036.25
2023-04-17T08:22:03.773Z,102030.47
2023-04-17T08:24:50.307Z,102041.56
2023-04-17T08:27:39.938Z,102040.69
2023-04-17T08:30:26.856Z,102048.81
2023-04-17T08:33:16.885Z,102049.13
2023-04-17T08:36:04.781Z,102056.88
2023-04-17T08:38:52.903Z,102066.13
2023-04-17T08:41:45.299Z,102064.06
2023-04-17T08:44:33.104Z,102063.53
2023-04-17T08:47:19.929Z,102060.75
2023-04-17T08:50:11.861Z,102069.63
2023-04-17T08:52:58.755Z,102065.78
2023-04-17T08:55:46.314Z,102066.09
2023-04-17T08:58:33.760Z,102073.75
2023-04-17T09:01:22.981Z,102078.28
2023-04-17T09:04:09.847Z,102074.69
2023-04-17T09:06:56.843Z,102066.66
2023-04-17T09:09:52.192Z,102078.53
2023-04-17T09:12:41.954Z,102077.16
2023-04-17T09:15:28.591Z,102079.91
2023-04-17T09:18:27.649Z,102083.22
2023-04-17T09:21:16.596Z,102077.91
2023-04-17T09:24:05.450Z,102082.22
2023-04-17T09:26:52.308Z,102080.28
2023-04-17T09:29:57.086Z,102082.19
2023-04-17T09:32:44.042Z,102088.84
2023-04-17T09:35:32.854Z,102086.00
2023-04-17T09:38:37.745Z,102093.75
2023-04-17T09:41:26.095Z,102088.94
2023-04-17T09:44:13.033Z,102091.78
2023-04-17T09:47:01.594Z,102088.16
2023-04-17T09:49:52.585Z,102087.50
2023-04-17T09:52:41.625Z,102091.44
2023-04-17T09:55:30.279Z,102084.88
2023-04-17T09:58:17.169Z,102091.25
2023-04-17T10:01:03.813Z,102086.34
2023-04-17T10:03:51.202Z,102094.03
2023-04-17T10:06:38.009Z,102079.63
2023-04-17T10:09:26.575Z,102089.59
2023-04-17T10:12:15.694Z,102085.88
2023-04-17T10:15:03.416Z,102094.25
2023-04-17T10:17:50.845Z,102076.97
2023-04-17T10:20:39.206Z,102087.41
2023-04-17T10:23:33.529Z,102086.88
2023-04-17T10:26:39.526Z,102088.75
2023-04-17T10:29:56.487Z,102083.16
2023-04-17T10:32:44.318Z,102085.91
2023-04-17T10:35:35.949Z,102084.50
2023-04-17T10:38:33.705Z,102092.44
2023-04-17T10:41:21.484Z,102085.28
2023-04-17T10:44:09.426Z,102085.31
2023-04-17T10:46:56.261Z,102087.75
2023-04-17T10:49:54.692Z,102084.75
2023-04-17T10:52:45.034Z,102088.66
2023-04-17T10:55:31.952Z,102088.28
2023-04-17T10:58:18.415Z,102084.47
2023-04-17T11:01:11.544Z,102088.50
2023-04-17T11:03:59.758Z,102083.81
2023-04-17T11:06:47.827Z,102083.84
2023-04-17T11:09:36.123Z,102084.34
2023-04-17T11:12:22.930Z,102092.59
2023-04-17T11:15:10.428Z,102089.63
2023-04-17T11:18:00.506Z,102101.25
2023-04-17T11:20:47.103Z,102102.19
2023-04-17T11:23:34.612Z,102102.75
2023-04-17T11:26:21.607Z,102087.25
2023-04-17T11:29:15.161Z,102106.41
2023-04-17T11:32:01.838Z,102106.38
2023-04-17T11:34:49.767Z,102112.88
2023-04-17T11:37:36.559Z,102106.69
2023-04-17T11:40:24.198Z,102107.00
2023-04-17T11:43:11.417Z,102109.03
2023-04-17T11:45:59.869Z,102116.19
2023-04-17T11:48:50.219Z,102111.81
2023-04-17T11:51:38.574Z,102111.47
2023-04-17T11:54:28.817Z,102102.16
2023-04-17T11:57:16.376Z,102116.22
2023-04-17T12:00:14.126Z,102113.97
2023-04-17T12:03:03.712Z,102119.47
2023-04-17T12:05:59.837Z,102117.31
2023-04-17T12:08:50.511Z,102106.63
2023-04-17T12:11:37.354Z,102112.25
2023-04-17T12:14:26.257Z,102118.59
2023-04-17T12:17:12.920Z,102114.44
2023-04-17T12:20:03.425Z,102114.53
2023-04-17T12:22:50.288Z,102116.34
2023-04-17T12:25:38.525Z,102119.03
2023-04-17T12:28:25.712Z,102117.06
2023-04-17T12:31:12.822Z,102120.56
2023-04-17T12:33:59.522Z,102116.66
2023-04-17T12:36:46.350Z,102113.06
2023-04-17T12:39:33.494Z,102114.84
2023-04-17T12:42:21.562Z,102111.41
2023-04-17T12:45:09.971Z,102116.38
2023-04-17T12:47:56.671Z,102117.28
2023-04-17T12:50:43.986Z,102098.84
2023-04-17T12:53:30.707Z,102115.03
2023-04-17T12:56:17.448Z,102116.44
2023-04-17T12:59:05.938Z,102116.53
2023-04-17T13:01:52.887Z,102109.28
2023-04-17T13:04:40.122Z,102120.09
2023-04-17T13:07:26.838Z,102120.66
2023-04-17T13:10:13.656Z,102128.44
2023-04-17T13:13:02.342Z,102120.88
2023-04-17T13:15:50.495Z,102121.81
2023-04-17T13:18:37.666Z,102126.63
2023-04-17T13:21:24.798Z,102127.06
2023-04-17T13:24:14.709Z,102127.75
2023-04-17T13:27:01.651Z,102124.66
2023-04-17T13:29:48.451Z,102128.69
2023-04-17T13:32:36.898Z,102128.00
2023-04-17T13:35:23.563Z,102128.09
2023-04-17T13:38:10.293Z,102132.75
2023-04-17T13:40:57.189Z,102121.78
2023-04-17T13:43:44.269Z,102131.56
2023-04-17T13:46:31.973Z,102128.69
2023-04-17T13:49:20.699Z,102129.59
2023-04-17T13:52:08.330Z,102126.31
2023-04-17T13:54:54.922Z,102125.56
2023-04-17T13:57:41.820Z,102133.66
2023-04-17T14:00:28.580Z,102128.44
2023-04-17T14:03:15.849Z,102127.13
2023-04-17T14:06:03.990Z,102128.41
2023-04-17T14:08:50.830Z,102134.06
2023-04-17T14:11:37.960Z,102123.53
2023-04-17T14:14:24.957Z,102129.63
2023-04-17T14:17:11.497Z,102124.16
2023-04-17T14:19:58.580Z,102125.00
2023-04-17T14:22:47.096Z,102130.16
2023-04-17T14:25:33.832Z,102120.16
2023-04-17T14:28:21.237Z,102122.59
2023-04-17T14:31:08.212Z,102120.03
2023-04-17T14:34:00.030Z,102127.34
2023-04-17T14:36:46.970Z,102129.03
2023-04-17T14:39:35.189Z,102142.88
2023-04-17T14:42:22.107Z,102131.16
2023-04-17T14:45:10.025Z,102135.72
2023-04-17T14:47:57.055Z,102129.63
2023-04-17T14:50:45.711Z,102134.81
2023-04-17T14:53:32.638Z,102142.91
2023-04-17T14:56:21.528Z,102137.22
2023-04-17T14:59:08.467Z,102135.50
2023-04-17T15:01:55.782Z,102146.31
2023-04-17T15:04:42.554Z,102149.09
2023-04-17T15:07:29.404Z,102141.81
2023-04-17T15:10:16.711Z,102145.72
2023-04-17T15:13:04.594Z,102151.00
2023-04-17T15:15:51.281Z,102142.06
2023-04-17T15:18:39.477Z,102141.41
2023-04-17T15:21:27.259Z,102137.66
2023-04-17T15:24:14.578Z,102145.63
2023-04-17T15:27:01.809Z,102132.97
2023-04-17T15:29:50.580Z,102135.72
2023-04-17T15:32:37.290Z,102136.28
2023-04-17T15:35:23.944Z,102132.66
2023-04-17T15:38:10.715Z,102129.81
2023-04-17T15:40:57.500Z,102133.44
2023-04-17T15:43:44.299Z,102132.72
2023-04-17T15:46:32.535Z,102127.44
2023-04-17T15:49:19.035Z,102137.06
2023-04-17T15:52:06.577Z,102135.06
2023-04-17T15:54:53.127Z,102132.47
2023-04-17T15:57:41.128Z,102128.19
2023-04-17T16:00:29.898Z,102135.97
2023-04-17T16:03:18.336Z,102136.75
2023-04-17T16:06:05.714Z,102133.00
2023-04-17T16:08:52.520Z,102136.59
2023-04-17T16:11:39.379Z,102138.03
2023-04-17T16:14:26.807Z,102133.59
2023-04-17T16:17:13.612Z,102134.41
2023-04-17T16:20:01.732Z,102141.53
2023-04-17T16:22:48.389Z,102137.25
2023-04-17T16:25:35.173Z,102143.25
2023-04-17T16:28:22.147Z,102140.69
2023-04-17T16:31:08.762Z,102140.84
2023-04-17T16:33:56.153Z,102144.66
2023-04-17T16:36:45.772Z,102146.47
2023-04-17T16:39:32.859Z,102141.94
2023-04-17T16:42:19.586Z,102150.84
2023-04-17T16:45:07.699Z,102146.34
2023-04-17T16:47:54.217Z,102142.72
2023-04-17T16:50:40.800Z,102070.78
2023-04-17T16:53:28.866Z,102153.22
2023-04-17T16:56:15.630Z,102151.50
2023-04-17T16:59:02.230Z,102147.88
2023-04-17T17:01:50.002Z,102154.19
2023-04-17T17:04:36.904Z,102152.53
2023-04-17T17:07:23.766Z,102154.25
2023-04-17T17:10:12.522Z,102151.69
2023-04-17T17:12:58.920Z,102158.75
2023-04-17T17:15:45.819Z,102157.75
2023-04-17T17:18:32.565Z,102158.72
2023-04-17T17:21:19.498Z,102156.31
2023-04-17T17:24:06.987Z,102159.81
2023-04-17T17:26:55.143Z,102167.78
2023-04-17T17:29:42.106Z,102165.31
2023-04-17T17:32:28.743Z,102171.50
2023-04-17T17:35:15.514Z,102167.97
2023-04-17T17:38:02.272Z,102165.22
2023-04-17T17:40:49.117Z,102177.78
2023-04-17T17:43:37.454Z,102177.00
2023-04-17T17:46:25.058Z,102190.16
2023-04-17T17:49:11.518Z,102183.09
2023-04-17T17:51:58.405Z,102186.84
2023-04-17T17:54:45.166Z,102190.31
2023-04-17T17:57:42.282Z,102180.72
2023-04-17T18:00:36.562Z,102188.56
2023-04-17T18:03:23.311Z,102186.03
2023-04-17T18:06:09.868Z,102191.22
2023-04-17T18:08:58.745Z,102188.66
2023-04-17T18:11:45.602Z,102187.00
2023-04-17T18:14:32.004Z,102188.69
2023-04-17T18:17:20.189Z,102185.03
2023-04-17T18:20:08.058Z,102182.56
2023-04-17T18:22:54.772Z,102186.03
2023-04-17T18:25:41.470Z,102186.94
2023-04-17T18:28:28.336Z,102189.63
2023-04-17T18:31:15.336Z,102188.00
2023-04-17T18:34:03.279Z,102192.44
2023-04-17T18:36:50.106Z,102193.25
2023-04-17T18:39:37.033Z,102203.03
2023-04-17T18:42:23.839Z,102204.97
2023-04-17T18:45:13.673Z,102202.25
2023-04-17T18:48:00.202Z,102212.81
2023-04-17T18:50:48.303Z,102210.19
2023-04-17T18:53:35.051Z,102215.53
2023-04-17T18:56:22.663Z,102218.16
2023-04-17T18:59:09.240Z,102223.44
2023-04-17T19:01:57.221Z,102222.53
2023-04-17T19:04:45.128Z,102189.19
2023-04-17T19:07:33.240Z,102222.50
2023-04-17T19:10:20.289Z,102223.31
2023-04-17T19:13:09.886Z,102222.59
2023-04-17T19:15:56.727Z,102230.59
2023-04-17T19:18:43.382Z,102219.88
2023-04-17T19:21:31.781Z,102223.44
2023-04-17T19:24:21.806Z,102141.66
2023-04-17T19:27:08.384Z,102218.88
2023-04-17T19:29:55.331Z,102226.09
2023-04-17T19:32:42.320Z,102224.41
2023-04-17T19:35:28.939Z,102219.03
2023-04-17T19:38:17.123Z,102224.31
2023-04-17T19:41:15.054Z,102218.94
2023-04-17T19:44:02.009Z,102212.00
2023-04-17T19:46:48.687Z,102218.16
2023-04-17T19:49:35.621Z,102212.81
2023-04-17T19:52:22.079Z,102219.91
2023-04-17T19:55:09.414Z,102218.19
2023-04-17T19:57:58.859Z,102207.47
2023-04-17T20:00:45.450Z,102219.06
2023-04-17T20:03:33.134Z,102219.13
2023-04-17T20:06:20.175Z,102225.31
2023-04-17T20:09:06.762Z,102226.25
2023-04-17T20:11:53.458Z,102223.59
2023-04-17T20:14:41.607Z,102225.41
2023-04-17T20:17:28.361Z,102228.00
2023-04-17T20:20:15.201Z,102222.72
2023-04-17T20:23:02.173Z,102226.38
2023-04-17T20:25:48.988Z,102213.16
2023-04-17T20:28:35.851Z,102222.66
2023-04-17T20:31:24.062Z,102219.22
2023-04-17T20:34:10.757Z,102220.00
2023-04-17T20:36:57.489Z,102221.03
2023-04-17T20:39:44.254Z,102214.97
2023-04-17T20:42:31.117Z,102215.69
2023-04-17T20:45:17.874Z,102220.19
2023-04-17T20:48:06.341Z,102214.13
2023-04-17T20:50:52.894Z,102218.47
2023-04-17T20:53:39.626Z,102217.59
2023-04-17T20:56:26.354Z,102210.66
2023-04-17T20:59:13.119Z,102221.25
2023-04-17T21:02:00.101Z,102220.50
2023-04-17T21:04:48.099Z,102225.78
2023-04-17T21:07:34.826Z,102225.78
2023-04-17T21:10:21.849Z,102226.72
2023-04-17T21:13:08.556Z,102224.06
2023-04-17T21:15:55.424Z,102233.81
2023-04-17T21:18:42.195Z,102237.28
2023-04-17T21:21:30.612Z,102239.19
2023-04-17T21:24:17.121Z,102239.19
2023-04-17T21:27:04.317Z,102246.31
2023-04-17T21:29:50.810Z,102234.91
2023-04-17T21:32:37.663Z,102239.28
2023-04-17T21:35:24.758Z,102238.44
2023-04-17T21:38:13.111Z,102245.47
2023-04-17T21:40:59.808Z,102249.91
2023-04-17T21:43:46.780Z,102238.50
2023-04-17T21:46:33.694Z,102245.53
2023-04-17T21:49:20.735Z,102247.34
2023-04-17T21:52:07.300Z,102242.03
2023-04-17T21:55:02.786Z,102243.72
2023-04-17T21:57:49.693Z,102250.88
2023-04-17T22:00:36.448Z,102248.22
2023-04-17T22:03:23.290Z,102258.00
2023-04-17T22:06:09.873Z,102259.78
2023-04-17T22:08:56.537Z,102259.78
2023-04-17T22:11:44.876Z,102259.84
2023-04-17T22:14:32.811Z,102261.59
2023-04-17T22:17:21.096Z,102266.91
2023-04-17T22:20:09.491Z,102261.63
2023-04-17T22:22:56.059Z,102270.41
2023-04-17T22:25:42.831Z,102267.78
2023-04-17T22:28:31.979Z,102265.13
2023-04-17T22:31:18.479Z,102272.22
2023-04-17T22:34:05.100Z,102271.34
2023-04-17T22:36:52.002Z,102275.75
2023-04-17T22:39:38.652Z,102275.75
2023-04-17T22:42:25.784Z,102270.47
2023-04-17T22:45:13.774Z,102276.66
2023-04-17T22:48:00.826Z,102275.78
2023-04-17T22:50:47.413Z,102270.50
2023-04-17T22:53:34.475Z,102275.78
2023-04-17T22:56:21.057Z,102278.41
2023-04-17T22:59:07.804Z,102274.00
2023-04-17T23:01:56.075Z,102278.41
2023-04-17T23:04:42.799Z,102277.50
2023-04-17T23:07:29.094Z,102280.97
2023-04-17T23:10:16.088Z,102280.13
2023-04-17T23:13:02.667Z,102282.78
2023-04-17T23:15:49.353Z,102251.94
2023-04-17T23:18:37.627Z,102271.31
2023-04-17T23:21:24.537Z,102275.75
2023-04-17T23:24:11.702Z,102283.63
2023-04-17T23:26:58.274Z,102280.16
2023-04-17T23:29:45.073Z,102277.53
2023-04-17T23:32:31.853Z,102275.78
2023-04-17T23:35:20.101Z,102277.53
2023-04-17T23:38:06.985Z,102276.66
2023-04-17T23:40:53.702Z,102265.22
2023-04-17T23:43:40.420Z,102270.50
2023-04-17T23:46:27.373Z,102277.53
2023-04-17T23:49:14.155Z,102282.81
2023-04-17T23:52:02.276Z,102271.38
2023-04-17T23:54:48.931Z,102274.03
2023-04-17T23:57:37.846Z,102278.41
